sensor_id;sensor_type;location;lat;lon;timestamp;pressure;altitude;pressure_sealevel;temperature;humidity
7760;BME280;3924;48.830;9.262;2024-03-25T00:00:13;97876.25;;;5.36;82.07
7760;BME280;3924;48.830;9.262;2024-03-25T00:02:41;97878.66;;;5.38;82.17
7760;BME280;3924;48.830;9.262;2024-03-25T00:05:08;97879.19;;;5.40;82.17
7760;BME280;3924;48.830;9.262;2024-03-25T00:07:37;97878.09;;;5.41;82.27
7760;BME280;3924;48.830;9.262;2024-03-25T00:10:04;97885.63;;;5.39;82.35
7760;BME280;3924;48.830;9.262;2024-03-25T00:12:32;97874.09;;;5.38;82.11
7760;BME280;3924;48.830;9.262;2024-03-25T00:14:58;97880.25;;;5.39;82.21
7760;BME280;3924;48.830;9.262;2024-03-25T00:17:23;97873.28;;;5.38;82.10
7760;BME280;3924;48.830;9.262;2024-03-25T00:19:49;97884.03;;;5.38;82.28
7760;BME280;3924;48.830;9.262;2024-03-25T00:22:36;97883.22;;;5.37;81.92
7760;BME280;3924;48.830;9.262;2024-03-25T00:25:02;97880.53;;;5.37;81.97
7760;BME280;3924;48.830;9.262;2024-03-25T00:27:28;97875.44;;;5.36;82.15
7760;BME280;3924;48.830;9.262;2024-03-25T00:29:55;97875.44;;;5.36;82.67
7760;BME280;3924;48.830;9.262;2024-03-25T00:32:21;97879.19;;;5.35;82.06
7760;BME280;3924;48.830;9.262;2024-03-25T00:34:46;97868.44;;;5.35;82.22
7760;BME280;3924;48.830;9.262;2024-03-25T00:37:12;97871.97;;;5.35;82.38
7760;BME280;3924;48.830;9.262;2024-03-25T00:39:38;97870.31;;;5.34;81.90
7760;BME280;3924;48.830;9.262;2024-03-25T00:42:04;97866.03;;;5.33;82.19
7760;BME280;3924;48.830;9.262;2024-03-25T00:44:29;97868.72;;;5.33;82.18
7760;BME280;3924;48.830;9.262;2024-03-25T00:46:55;97869.00;;;5.32;82.24
7760;BME280;3924;48.830;9.262;2024-03-25T00:49:21;97874.38;;;5.32;82.26
7760;BME280;3924;48.830;9.262;2024-03-25T00:51:47;97871.97;;;5.30;82.34
7760;BME280;3924;48.830;9.262;2024-03-25T00:54:12;97885.13;;;5.32;82.22
7760;BME280;3924;48.830;9.262;2024-03-25T00:56:38;97875.47;;;5.31;82.32
7760;BME280;3924;48.830;9.262;2024-03-25T00:59:04;97878.16;;;5.31;82.13
7760;BME280;3924;48.830;9.262;2024-03-25T01:01:32;97877.88;;;5.32;82.11
7760;BME280;3924;48.830;9.262;2024-03-25T01:03:58;97881.34;;;5.33;82.39
7760;BME280;3924;48.830;9.262;2024-03-25T01:06:24;97868.44;;;5.35;81.79
7760;BME280;3924;48.830;9.262;2024-03-25T01:08:50;97872.22;;;5.34;82.21
7760;BME280;3924;48.830;9.262;2024-03-25T01:11:17;97859.59;;;5.34;82.50
7760;BME280;3924;48.830;9.262;2024-03-25T01:13:42;97865.25;;;5.33;82.08
7760;BME280;3924;48.830;9.262;2024-03-25T01:16:08;97857.19;;;5.33;82.22
7760;BME280;3924;48.830;9.262;2024-03-25T01:18:34;97859.88;;;5.33;81.99
7760;BME280;3924;48.830;9.262;2024-03-25T01:21:00;97858.25;;;5.32;82.16
7760;BME280;3924;48.830;9.262;2024-03-25T01:23:26;97849.69;;;5.30;82.33
7760;BME280;3924;48.830;9.262;2024-03-25T01:25:52;97853.97;;;5.31;81.83
7760;BME280;3924;48.830;9.262;2024-03-25T01:28:18;97850.75;;;5.29;82.28
7760;BME280;3924;48.830;9.262;2024-03-25T01:30:43;97860.44;;;5.30;82.00
7760;BME280;3924;48.830;9.262;2024-03-25T01:33:12;97848.06;;;5.29;82.11
7760;BME280;3924;48.830;9.262;2024-03-25T01:35:38;97841.88;;;5.28;82.06
7760;BME280;3924;48.830;9.262;2024-03-25T01:38:03;97831.94;;;5.29;81.88
7760;BME280;3924;48.830;9.262;2024-03-25T01:40:29;97842.16;;;5.27;82.11
7760;BME280;3924;48.830;9.262;2024-03-25T01:42:59;97844.31;;;5.25;82.13
7760;BME280;3924;48.830;9.262;2024-03-25T01:45:27;97841.63;;;5.25;82.15
7760;BME280;3924;48.830;9.262;2024-03-25T01:47:54;97845.41;;;5.24;81.71
7760;BME280;3924;48.830;9.262;2024-03-25T01:50:21;97845.41;;;5.24;82.25
7760;BME280;3924;48.830;9.262;2024-03-25T01:52:50;97856.16;;;5.24;82.07
7760;BME280;3924;48.830;9.262;2024-03-25T01:55:19;97859.91;;;5.22;81.92
7760;BME280;3924;48.830;9.262;2024-03-25T01:57:46;97858.31;;;5.21;81.92
7760;BME280;3924;48.830;9.262;2024-03-25T02:00:13;97858.31;;;5.21;82.21
7760;BME280;3924;48.830;9.262;2024-03-25T02:02:40;97862.84;;;5.21;81.93
7760;BME280;3924;48.830;9.262;2024-03-25T02:05:16;97865.53;;;5.21;82.05
7760;BME280;3924;48.830;9.262;2024-03-25T02:07:43;97854.53;;;5.22;82.18
7760;BME280;3924;48.830;9.262;2024-03-25T02:10:09;97861.00;;;5.21;82.32
7760;BME280;3924;48.830;9.262;2024-03-25T02:12:38;97858.31;;;5.21;81.99
7760;BME280;3924;48.830;9.262;2024-03-25T02:15:05;97859.13;;;5.22;81.94
7760;BME280;3924;48.830;9.262;2024-03-25T02:17:31;97855.06;;;5.19;82.04
7760;BME280;3924;48.830;9.262;2024-03-25T02:19:56;97856.16;;;5.18;82.15
7760;BME280;3924;48.830;9.262;2024-03-25T02:22:22;97848.09;;;5.18;81.78
7760;BME280;3924;48.830;9.262;2024-03-25T02:24:50;97851.88;;;5.17;81.89
7760;BME280;3924;48.830;9.262;2024-03-25T02:27:16;97851.06;;;5.17;82.13
7760;BME280;3924;48.830;9.262;2024-03-25T02:29:42;97844.91;;;5.16;81.96
7760;BME280;3924;48.830;9.262;2024-03-25T02:32:10;97845.97;;;5.15;82.12
7760;BME280;3924;48.830;9.262;2024-03-25T02:34:51;97854.03;;;5.15;82.01
7760;BME280;3924;48.830;9.262;2024-03-25T02:37:18;97852.41;;;5.14;81.98
7760;BME280;3924;48.830;9.262;2024-03-25T02:39:44;97851.34;;;5.15;82.00
7760;BME280;3924;48.830;9.262;2024-03-25T02:42:10;97852.41;;;5.14;82.15
7760;BME280;3924;48.830;9.262;2024-03-25T02:44:35;97847.03;;;5.14;81.83
7760;BME280;3924;48.830;9.262;2024-03-25T02:47:01;97852.69;;;5.13;81.89
7760;BME280;3924;48.830;9.262;2024-03-25T02:49:29;97844.91;;;5.11;82.33
7760;BME280;3924;48.830;9.262;2024-03-25T02:51:57;97846.50;;;5.12;81.92
7760;BME280;3924;48.830;9.262;2024-03-25T02:54:23;97851.34;;;5.10;81.97
7760;BME280;3924;48.830;9.262;2024-03-25T02:56:48;97846.00;;;5.10;82.03
7760;BME280;3924;48.830;9.262;2024-03-25T02:59:14;97851.34;;;5.10;81.90
7760;BME280;3924;48.830;9.262;2024-03-25T03:01:39;97847.06;;;5.09;82.11
7760;BME280;3924;48.830;9.262;2024-03-25T03:04:05;97845.19;;;5.10;82.14
7760;BME280;3924;48.830;9.262;2024-03-25T03:06:30;97843.59;;;5.09;82.18
7760;BME280;3924;48.830;9.262;2024-03-25T03:08:56;97848.16;;;5.08;82.10
7760;BME280;3924;48.830;9.262;2024-03-25T03:11:21;97848.16;;;5.08;82.26
7760;BME280;3924;48.830;9.262;2024-03-25T03:13:47;97858.34;;;5.06;82.13
7760;BME280;3924;48.830;9.262;2024-03-25T03:16:13;97851.66;;;5.04;82.14
7760;BME280;3924;48.830;9.262;2024-03-25T03:18:39;97849.25;;;5.02;82.24
7760;BME280;3924;48.830;9.262;2024-03-25T03:21:05;97846.00;;;5.00;81.88
7760;BME280;3924;48.830;9.262;2024-03-25T03:23:30;97843.31;;;5.00;82.17
7760;BME280;3924;48.830;9.262;2024-03-25T03:25:56;97840.63;;;5.00;82.15
7760;BME280;3924;48.830;9.262;2024-03-25T03:28:25;97842.28;;;5.01;82.44
7760;BME280;3924;48.830;9.262;2024-03-25T03:30:51;97834.22;;;5.01;82.43
7760;BME280;3924;48.830;9.262;2024-03-25T03:33:16;97821.03;;;5.00;82.22
7760;BME280;3924;48.830;9.262;2024-03-25T03:35:42;97822.13;;;4.99;82.54
7760;BME280;3924;48.830;9.262;2024-03-25T03:38:08;97819.72;;;4.97;82.32
7760;BME280;3924;48.830;9.262;2024-03-25T03:40:34;97818.09;;;4.96;82.68
7760;BME280;3924;48.830;9.262;2024-03-25T03:42:59;97814.06;;;4.93;82.22
7760;BME280;3924;48.830;9.262;2024-03-25T03:45:25;97815.44;;;4.91;82.69
7760;BME280;3924;48.830;9.262;2024-03-25T03:47:51;97824.56;;;4.90;82.37
7760;BME280;3924;48.830;9.262;2024-03-25T03:50:16;97828.63;;;4.87;82.46
7760;BME280;3924;48.830;9.262;2024-03-25T03:52:42;97828.88;;;4.86;82.52
7760;BME280;3924;48.830;9.262;2024-03-25T03:55:08;97826.97;;;4.86;82.67
7760;BME280;3924;48.830;9.262;2024-03-25T03:57:34;97834.25;;;4.86;82.70
7760;BME280;3924;48.830;9.262;2024-03-25T03:59:59;97835.59;;;4.83;82.56
7760;BME280;3924;48.830;9.262;2024-03-25T04:02:27;97833.72;;;4.79;82.53
7760;BME280;3924;48.830;9.262;2024-03-25T04:04:53;97838.28;;;4.78;82.58
7760;BME280;3924;48.830;9.262;2024-03-25T04:07:19;97849.03;;;4.78;82.54
7760;BME280;3924;48.830;9.262;2024-03-25T04:09:46;97845.25;;;4.79;82.61
7760;BME280;3924;48.830;9.262;2024-03-25T04:12:11;97851.44;;;4.80;82.67
7760;BME280;3924;48.830;9.262;2024-03-25T04:14:37;97843.38;;;4.80;82.67
7760;BME280;3924;48.830;9.262;2024-03-25T04:17:04;97853.06;;;4.81;82.82
7760;BME280;3924;48.830;9.262;2024-03-25T04:19:30;97854.69;;;4.82;82.68
7760;BME280;3924;48.830;9.262;2024-03-25T04:21:55;97847.69;;;4.81;82.88
7760;BME280;3924;48.830;9.262;2024-03-25T04:24:21;97846.63;;;4.82;82.67
7760;BME280;3924;48.830;9.262;2024-03-25T04:26:47;97846.63;;;4.82;82.45
7760;BME280;3924;48.830;9.262;2024-03-25T04:29:14;97844.47;;;4.79;82.71
7760;BME280;3924;48.830;9.262;2024-03-25T04:31:39;97836.97;;;4.76;82.65
7760;BME280;3924;48.830;9.262;2024-03-25T04:34:05;97832.13;;;4.73;82.70
7760;BME280;3924;48.830;9.262;2024-03-25T04:36:30;97828.91;;;4.71;82.77
7760;BME280;3924;48.830;9.262;2024-03-25T04:38:56;97832.97;;;4.68;83.02
7760;BME280;3924;48.830;9.262;2024-03-25T04:41:22;97834.84;;;4.68;82.85
7760;BME280;3924;48.830;9.262;2024-03-25T04:43:48;97832.16;;;4.68;82.76
7760;BME280;3924;48.830;9.262;2024-03-25T04:46:14;97828.91;;;4.65;82.99
7760;BME280;3924;48.830;9.262;2024-03-25T04:48:40;97827.31;;;4.64;82.88
7760;BME280;3924;48.830;9.262;2024-03-25T04:51:06;97826.50;;;4.64;82.95
7760;BME280;3924;48.830;9.262;2024-03-25T04:53:32;97836.16;;;4.65;83.08
7760;BME280;3924;48.830;9.262;2024-03-25T04:55:57;97835.66;;;4.63;83.00
7760;BME280;3924;48.830;9.262;2024-03-25T04:58:23;97838.63;;;4.61;82.98
7760;BME280;3924;48.830;9.262;2024-03-25T05:00:48;97846.09;;;4.59;82.82
7760;BME280;3924;48.830;9.262;2024-03-25T05:03:14;97842.91;;;4.57;83.05
7760;BME280;3924;48.830;9.262;2024-03-25T05:05:39;97840.50;;;4.56;83.00
7760;BME280;3924;48.830;9.262;2024-03-25T05:08:06;97846.66;;;4.56;83.25
7760;BME280;3924;48.830;9.262;2024-03-25T05:10:32;97842.38;;;4.55;83.30
7760;BME280;3924;48.830;9.262;2024-03-25T05:12:57;97849.91;;;4.53;83.51
7760;BME280;3924;48.830;9.262;2024-03-25T05:15:23;97849.34;;;4.51;83.27
7760;BME280;3924;48.830;9.262;2024-03-25T05:17:48;97850.16;;;4.52;83.42
7760;BME280;3924;48.830;9.262;2024-03-25T05:20:14;97848.53;;;4.51;83.24
7760;BME280;3924;48.830;9.262;2024-03-25T05:22:40;97851.22;;;4.51;83.22
7760;BME280;3924;48.830;9.262;2024-03-25T05:25:05;97863.03;;;4.50;83.15
7760;BME280;3924;48.830;9.262;2024-03-25T05:27:31;97860.88;;;4.52;83.24
7760;BME280;3924;48.830;9.262;2024-03-25T05:29:56;97862.25;;;4.49;83.04
7760;BME280;3924;48.830;9.262;2024-03-25T05:32:22;97853.66;;;4.47;83.52
7760;BME280;3924;48.830;9.262;2024-03-25T05:34:47;97861.72;;;4.47;83.40
7760;BME280;3924;48.830;9.262;2024-03-25T05:37:16;97863.84;;;4.45;83.32
7760;BME280;3924;48.830;9.262;2024-03-25T05:39:41;97863.31;;;4.43;83.42
7760;BME280;3924;48.830;9.262;2024-03-25T05:42:07;97872.97;;;4.44;83.50
7760;BME280;3924;48.830;9.262;2024-03-25T05:44:33;97867.09;;;4.42;83.69
7760;BME280;3924;48.830;9.262;2024-03-25T05:46:58;97869.50;;;4.44;83.20
7760;BME280;3924;48.830;9.262;2024-03-25T05:49:24;97875.66;;;4.44;83.35
7760;BME280;3924;48.830;9.262;2024-03-25T05:51:49;97871.38;;;4.43;83.09
7760;BME280;3924;48.830;9.262;2024-03-25T05:54:15;97874.06;;;4.43;83.03
7760;BME280;3924;48.830;9.262;2024-03-25T05:56:40;97878.91;;;4.46;83.23
7760;BME280;3924;48.830;9.262;2024-03-25T05:59:06;97875.13;;;4.47;83.30
7760;BME280;3924;48.830;9.262;2024-03-25T06:01:31;97876.19;;;4.51;83.33
7760;BME280;3924;48.830;9.262;2024-03-25T06:03:59;97889.06;;;4.59;83.23
7760;BME280;3924;48.830;9.262;2024-03-25T06:06:24;97881.56;;;4.61;83.87
7760;BME280;3924;48.830;9.262;2024-03-25T06:08:50;97876.72;;;4.63;83.08
7760;BME280;3924;48.830;9.262;2024-03-25T06:11:16;97875.63;;;4.70;83.52
7760;BME280;3924;48.830;9.262;2024-03-25T06:13:46;97881.81;;;4.75;82.99
7760;BME280;3924;48.830;9.262;2024-03-25T06:16:13;97876.97;;;4.82;83.19
7760;BME280;3924;48.830;9.262;2024-03-25T06:18:39;97882.84;;;4.89;83.32
7760;BME280;3924;48.830;9.262;2024-03-25T06:21:06;97877.72;;;5.03;83.00
7760;BME280;3924;48.830;9.262;2024-03-25T06:23:31;97873.00;;;5.34;82.57
7760;BME280;3924;48.830;9.262;2024-03-25T06:25:57;97873.19;;;5.58;82.36
7760;BME280;3924;48.830;9.262;2024-03-25T06:28:23;97878.47;;;5.79;81.52
7760;BME280;3924;48.830;9.262;2024-03-25T06:30:50;97873.38;;;5.72;81.61
7760;BME280;3924;48.830;9.262;2024-03-25T06:33:34;97878.88;;;5.52;81.98
7760;BME280;3924;48.830;9.262;2024-03-25T06:36:19;97874.66;;;5.35;81.86
7760;BME280;3924;48.830;9.262;2024-03-25T06:38:45;97874.88;;;5.39;82.31
7760;BME280;3924;48.830;9.262;2024-03-25T06:41:11;97874.22;;;5.62;81.81
7760;BME280;3924;48.830;9.262;2024-03-25T06:43:37;97880.56;;;5.87;81.72
7760;BME280;3924;48.830;9.262;2024-03-25T06:46:06;97873.47;;;6.06;81.56
7760;BME280;3924;48.830;9.262;2024-03-25T06:48:33;97877.94;;;6.21;81.14
7760;BME280;3924;48.830;9.262;2024-03-25T06:51:00;97881.06;;;6.33;81.24
7760;BME280;3924;48.830;9.262;2024-03-25T06:53:28;97878.06;;;6.40;80.73
7760;BME280;3924;48.830;9.262;2024-03-25T06:55:55;97878.00;;;6.45;80.77
7760;BME280;3924;48.830;9.262;2024-03-25T06:58:21;97876.88;;;6.51;80.43
7760;BME280;3924;48.830;9.262;2024-03-25T07:00:47;97875.44;;;6.58;80.68
7760;BME280;3924;48.830;9.262;2024-03-25T07:03:16;97881.09;;;6.62;79.98
7760;BME280;3924;48.830;9.262;2024-03-25T07:05:47;97889.69;;;6.64;80.32
7760;BME280;3924;48.830;9.262;2024-03-25T07:08:14;97884.84;;;6.66;80.32
7760;BME280;3924;48.830;9.262;2024-03-25T07:10:43;97894.19;;;6.74;80.69
7760;BME280;3924;48.830;9.262;2024-03-25T07:13:09;97901.34;;;6.83;80.63
7760;BME280;3924;48.830;9.262;2024-03-25T07:15:35;97900.22;;;6.90;79.37
7760;BME280;3924;48.830;9.262;2024-03-25T07:18:01;97897.78;;;6.93;79.85
7760;BME280;3924;48.830;9.262;2024-03-25T07:20:27;97898.66;;;6.83;79.83
7760;BME280;3924;48.830;9.262;2024-03-25T07:22:53;97901.13;;;6.80;79.91
7760;BME280;3924;48.830;9.262;2024-03-25T07:25:27;97892.81;;;6.76;79.70
7760;BME280;3924;48.830;9.262;2024-03-25T07:27:52;97890.09;;;6.76;79.80
7760;BME280;3924;48.830;9.262;2024-03-25T07:30:18;97887.78;;;6.94;79.49
7760;BME280;3924;48.830;9.262;2024-03-25T07:32:44;97885.94;;;7.13;79.22
7760;BME280;3924;48.830;9.262;2024-03-25T07:35:11;97878.50;;;7.29;79.05
7760;BME280;3924;48.830;9.262;2024-03-25T07:37:36;97880.78;;;7.40;78.51
7760;BME280;3924;48.830;9.262;2024-03-25T07:40:03;97883.75;;;7.63;79.03
7760;BME280;3924;48.830;9.262;2024-03-25T07:42:29;97880.47;;;7.66;78.59
7760;BME280;3924;48.830;9.262;2024-03-25T07:44:56;97879.06;;;7.50;78.49
7760;BME280;3924;48.830;9.262;2024-03-25T07:47:21;97869.66;;;7.47;78.23
7760;BME280;3924;48.830;9.262;2024-03-25T07:49:47;97873.69;;;7.50;78.49
7760;BME280;3924;48.830;9.262;2024-03-25T07:52:12;97875.91;;;7.43;78.90
7760;BME280;3924;48.830;9.262;2024-03-25T07:54:39;97877.63;;;7.33;78.06
7760;BME280;3924;48.830;9.262;2024-03-25T07:57:05;97874.63;;;7.16;78.30
7760;BME280;3924;48.830;9.262;2024-03-25T07:59:30;97894.44;;;7.01;78.74
7760;BME280;3924;48.830;9.262;2024-03-25T08:01:56;97880.28;;;6.91;78.46
7760;BME280;3924;48.830;9.262;2024-03-25T08:04:21;97882.47;;;7.12;78.36
7760;BME280;3924;48.830;9.262;2024-03-25T08:06:47;97891.41;;;7.32;77.80
7760;BME280;3924;48.830;9.262;2024-03-25T08:09:13;97888.03;;;7.21;77.60
7760;BME280;3924;48.830;9.262;2024-03-25T08:11:41;97883.72;;;7.20;77.96
7760;BME280;3924;48.830;9.262;2024-03-25T08:14:09;97883.50;;;7.59;77.16
7760;BME280;3924;48.830;9.262;2024-03-25T08:16:35;97881.97;;;7.96;76.57
7760;BME280;3924;48.830;9.262;2024-03-25T08:19:01;97881.25;;;8.23;76.00
7760;BME280;3924;48.830;9.262;2024-03-25T08:21:26;97877.31;;;8.34;75.40
7760;BME280;3924;48.830;9.262;2024-03-25T08:23:52;97874.56;;;8.39;75.43
7760;BME280;3924;48.830;9.262;2024-03-25T08:26:17;97863.97;;;8.43;75.45
7760;BME280;3924;48.830;9.262;2024-03-25T08:28:43;97862.22;;;8.52;74.78
7760;BME280;3924;48.830;9.262;2024-03-25T08:31:09;97865.19;;;8.50;74.68
7760;BME280;3924;48.830;9.262;2024-03-25T08:33:35;97859.28;;;8.48;74.37
7760;BME280;3924;48.830;9.262;2024-03-25T08:36:00;97863.59;;;8.49;74.57
7760;BME280;3924;48.830;9.262;2024-03-25T08:38:26;97853.19;;;8.57;73.81
7760;BME280;3924;48.830;9.262;2024-03-25T08:40:52;97858.22;;;8.63;73.80
7760;BME280;3924;48.830;9.262;2024-03-25T08:43:18;97859.41;;;8.57;73.59
7760;BME280;3924;48.830;9.262;2024-03-25T08:45:44;97855.91;;;8.57;73.04
7760;BME280;3924;48.830;9.262;2024-03-25T08:48:10;97853.59;;;8.64;73.09
7760;BME280;3924;48.830;9.262;2024-03-25T08:50:35;97852.75;;;8.36;73.35
7760;BME280;3924;48.830;9.262;2024-03-25T08:53:02;97847.34;;;8.36;73.37
7760;BME280;3924;48.830;9.262;2024-03-25T08:55:28;97850.31;;;8.53;73.14
7760;BME280;3924;48.830;9.262;2024-03-25T08:57:54;97844.25;;;8.75;71.92
7760;BME280;3924;48.830;9.262;2024-03-25T09:00:19;97834.66;;;8.96;71.36
7760;BME280;3924;48.830;9.262;2024-03-25T09:02:45;97824.84;;;9.28;70.73
7760;BME280;3924;48.830;9.262;2024-03-25T09:05:11;97835.81;;;9.45;70.64
7760;BME280;3924;48.830;9.262;2024-03-25T09:07:39;97830.56;;;9.13;70.48
7760;BME280;3924;48.830;9.262;2024-03-25T09:10:05;97825.13;;;8.99;70.48
7760;BME280;3924;48.830;9.262;2024-03-25T09:12:49;97821.75;;;9.07;70.93
7760;BME280;3924;48.830;9.262;2024-03-25T09:15:15;97820.63;;;8.94;71.33
7760;BME280;3924;48.830;9.262;2024-03-25T09:17:40;97821.03;;;8.74;71.09
7760;BME280;3924;48.830;9.262;2024-03-25T09:20:06;97816.91;;;8.90;70.75
7760;BME280;3924;48.830;9.262;2024-03-25T09:22:43;97821.13;;;9.24;70.13
7760;BME280;3924;48.830;9.262;2024-03-25T09:25:08;97819.25;;;9.60;68.94
7760;BME280;3924;48.830;9.262;2024-03-25T09:27:34;97810.41;;;9.82;68.62
7760;BME280;3924;48.830;9.262;2024-03-25T09:29:59;97812.31;;;9.82;68.71
7760;BME280;3924;48.830;9.262;2024-03-25T09:32:25;97814.38;;;9.85;67.99
7760;BME280;3924;48.830;9.262;2024-03-25T09:34:51;97815.91;;;9.77;68.10
7760;BME280;3924;48.830;9.262;2024-03-25T09:37:17;97802.28;;;9.82;67.43
7760;BME280;3924;48.830;9.262;2024-03-25T09:39:43;97807.28;;;10.11;67.35
7760;BME280;3924;48.830;9.262;2024-03-25T09:42:18;97794.81;;;10.24;66.35
7760;BME280;3924;48.830;9.262;2024-03-25T09:44:47;97793.63;;;10.39;66.04
7760;BME280;3924;48.830;9.262;2024-03-25T09:47:12;97789.03;;;10.48;66.00
7760;BME280;3924;48.830;9.262;2024-03-25T09:49:40;97780.13;;;10.48;65.87
7760;BME280;3924;48.830;9.262;2024-03-25T09:52:07;97784.13;;;10.50;64.59
7760;BME280;3924;48.830;9.262;2024-03-25T09:54:33;97782.25;;;10.59;64.69
7760;BME280;3924;48.830;9.262;2024-03-25T09:57:00;97775.31;;;10.76;64.11
7760;BME280;3924;48.830;9.262;2024-03-25T09:59:26;97768.63;;;10.82;63.95
7760;BME280;3924;48.830;9.262;2024-03-25T10:01:54;97769.63;;;10.86;64.32
7760;BME280;3924;48.830;9.262;2024-03-25T10:04:20;97763.91;;;11.05;63.45
7760;BME280;3924;48.830;9.262;2024-03-25T10:06:45;97763.66;;;11.23;62.63
7760;BME280;3924;48.830;9.262;2024-03-25T10:09:11;97764.16;;;11.43;62.25
7760;BME280;3924;48.830;9.262;2024-03-25T10:11:36;97753.94;;;11.40;62.17
7760;BME280;3924;48.830;9.262;2024-03-25T10:14:02;97748.59;;;11.00;62.55
7760;BME280;3924;48.830;9.262;2024-03-25T10:16:28;97742.22;;;11.05;62.98
7760;BME280;3924;48.830;9.262;2024-03-25T10:18:54;97736.50;;;11.15;61.98
7760;BME280;3924;48.830;9.262;2024-03-25T10:21:20;97728.06;;;10.59;62.37
7760;BME280;3924;48.830;9.262;2024-03-25T10:23:47;97724.44;;;10.81;62.52
7760;BME280;3924;48.830;9.262;2024-03-25T10:26:27;97718.97;;;11.12;61.23
7760;BME280;3924;48.830;9.262;2024-03-25T10:29:04;97716.06;;;11.17;61.21
7760;BME280;3924;48.830;9.262;2024-03-25T10:31:33;97703.16;;;11.06;60.72
7760;BME280;3924;48.830;9.262;2024-03-25T10:33:59;97699.66;;;11.22;60.31
7760;BME280;3924;48.830;9.262;2024-03-25T10:36:25;97705.09;;;11.48;60.48
7760;BME280;3924;48.830;9.262;2024-03-25T10:38:55;97710.19;;;11.59;58.92
7760;BME280;3924;48.830;9.262;2024-03-25T10:41:22;97707.50;;;11.50;59.12
7760;BME280;3924;48.830;9.262;2024-03-25T10:43:49;97698.22;;;11.51;59.35
7760;BME280;3924;48.830;9.262;2024-03-25T10:46:18;97702.03;;;11.07;58.96
7760;BME280;3924;48.830;9.262;2024-03-25T10:49:11;97702.81;;;10.99;59.31
7760;BME280;3924;48.830;9.262;2024-03-25T10:51:34;97699.03;;;11.26;58.47
7760;BME280;3924;48.830;9.262;2024-03-25T10:54:01;97700.31;;;11.54;58.40
7760;BME280;3924;48.830;9.262;2024-03-25T10:56:28;97694.06;;;11.97;57.10
7760;BME280;3924;48.830;9.262;2024-03-25T10:58:55;97694.38;;;12.04;56.64
7760;BME280;3924;48.830;9.262;2024-03-25T11:01:22;97686.97;;;12.13;56.82
7760;BME280;3924;48.830;9.262;2024-03-25T11:03:48;97690.56;;;11.88;56.58
7760;BME280;3924;48.830;9.262;2024-03-25T11:06:15;97685.78;;;11.85;56.49
7760;BME280;3924;48.830;9.262;2024-03-25T11:08:42;97692.31;;;12.01;56.43
7760;BME280;3924;48.830;9.262;2024-03-25T11:11:13;97679.25;;;12.32;55.78
7760;BME280;3924;48.830;9.262;2024-03-25T11:13:39;97675.66;;;12.58;54.77
7760;BME280;3924;48.830;9.262;2024-03-25T11:16:06;97670.47;;;12.65;55.29
7760;BME280;3924;48.830;9.262;2024-03-25T11:18:32;97662.56;;;12.81;53.91
7760;BME280;3924;48.830;9.262;2024-03-25T11:21:05;97653.69;;;12.93;53.92
7760;BME280;3924;48.830;9.262;2024-03-25T11:23:41;97654.34;;;12.90;54.28
7760;BME280;3924;48.830;9.262;2024-03-25T11:26:21;97638.94;;;12.35;54.95
7760;BME280;3924;48.830;9.262;2024-03-25T11:28:48;97642.44;;;12.44;54.34
7760;BME280;3924;48.830;9.262;2024-03-25T11:31:15;97644.88;;;12.37;54.21
7760;BME280;3924;48.830;9.262;2024-03-25T11:33:41;97644.31;;;12.52;54.18
7760;BME280;3924;48.830;9.262;2024-03-25T11:36:07;97640.03;;;13.01;53.15
7760;BME280;3924;48.830;9.262;2024-03-25T11:38:33;97632.41;;;13.36;52.06
7760;BME280;3924;48.830;9.262;2024-03-25T11:41:00;97633.41;;;13.53;51.73
7760;BME280;3924;48.830;9.262;2024-03-25T11:43:25;97622.47;;;13.74;51.17
7760;BME280;3924;48.830;9.262;2024-03-25T11:45:51;97613.41;;;13.82;50.75
7760;BME280;3924;48.830;9.262;2024-03-25T11:48:20;97612.38;;;13.74;50.57
7760;BME280;3924;48.830;9.262;2024-03-25T11:50:48;97607.91;;;13.36;51.25
7760;BME280;3924;48.830;9.262;2024-03-25T11:53:14;97605.94;;;13.46;51.65
7760;BME280;3924;48.830;9.262;2024-03-25T11:55:40;97591.38;;;13.75;50.96
7760;BME280;3924;48.830;9.262;2024-03-25T11:58:07;97586.75;;;14.00;50.06
7760;BME280;3924;48.830;9.262;2024-03-25T12:00:33;97578.25;;;14.13;50.07
7760;BME280;3924;48.830;9.262;2024-03-25T12:03:00;97580.63;;;14.27;49.59
7760;BME280;3924;48.830;9.262;2024-03-25T12:05:26;97576.56;;;14.21;49.24
7760;BME280;3924;48.830;9.262;2024-03-25T12:07:51;97567.94;;;14.31;49.51
7760;BME280;3924;48.830;9.262;2024-03-25T12:10:17;97559.28;;;14.54;49.01
7760;BME280;3924;48.830;9.262;2024-03-25T12:13:01;97562.47;;;14.43;49.54
7760;BME280;3924;48.830;9.262;2024-03-25T12:15:27;97554.31;;;14.56;48.54
7760;BME280;3924;48.830;9.262;2024-03-25T12:17:53;97549.75;;;14.35;48.35
7760;BME280;3924;48.830;9.262;2024-03-25T12:20:20;97548.81;;;14.07;48.90
7760;BME280;3924;48.830;9.262;2024-03-25T12:22:45;97537.25;;;13.98;48.73
7760;BME280;3924;48.830;9.262;2024-03-25T12:25:11;97530.88;;;13.81;49.40
7760;BME280;3924;48.830;9.262;2024-03-25T12:27:38;97533.81;;;13.76;48.99
7760;BME280;3924;48.830;9.262;2024-03-25T12:30:08;97534.44;;;13.49;49.55
7760;BME280;3924;48.830;9.262;2024-03-25T12:32:42;97521.28;;;13.38;49.55
7760;BME280;3924;48.830;9.262;2024-03-25T12:37:34;97512.84;;;14.01;47.97
7760;BME280;3924;48.830;9.262;2024-03-25T12:40:01;97506.59;;;13.88;48.14
7760;BME280;3924;48.830;9.262;2024-03-25T12:42:28;97496.59;;;14.05;47.53
7760;BME280;3924;48.830;9.262;2024-03-25T12:44:53;97492.28;;;14.16;48.02
7760;BME280;3924;48.830;9.262;2024-03-25T12:47:19;97488.88;;;14.07;47.47
7760;BME280;3924;48.830;9.262;2024-03-25T12:49:45;97487.50;;;14.13;47.39
7760;BME280;3924;48.830;9.262;2024-03-25T12:52:11;97478.66;;;14.16;47.28
7760;BME280;3924;48.830;9.262;2024-03-25T12:54:37;97474.56;;;14.34;47.01
7760;BME280;3924;48.830;9.262;2024-03-25T12:57:03;97469.97;;;14.38;46.71
7760;BME280;3924;48.830;9.262;2024-03-25T12:59:28;97463.88;;;14.29;46.94
7760;BME280;3924;48.830;9.262;2024-03-25T13:01:54;97446.47;;;14.34;46.41
7760;BME280;3924;48.830;9.262;2024-03-25T13:04:20;97450.34;;;14.20;46.63
7760;BME280;3924;48.830;9.262;2024-03-25T13:06:46;97450.72;;;14.07;46.53
7760;BME280;3924;48.830;9.262;2024-03-25T13:09:12;97446.75;;;14.04;46.21
7760;BME280;3924;48.830;9.262;2024-03-25T13:11:38;97444.81;;;14.05;46.75
7760;BME280;3924;48.830;9.262;2024-03-25T13:14:04;97436.41;;;14.22;45.75
7760;BME280;3924;48.830;9.262;2024-03-25T13:16:32;97428.19;;;14.46;45.30
7760;BME280;3924;48.830;9.262;2024-03-25T13:18:58;97440.56;;;14.44;46.02
7760;BME280;3924;48.830;9.262;2024-03-25T13:21:24;97421.66;;;14.63;45.69
7760;BME280;3924;48.830;9.262;2024-03-25T13:23:54;97427.47;;;14.62;45.47
7760;BME280;3924;48.830;9.262;2024-03-25T13:26:19;97426.78;;;14.53;45.23
7760;BME280;3924;48.830;9.262;2024-03-25T13:28:45;97430.78;;;14.55;45.43